createdAt,value
2023-12-16T00:00:59.555Z,102007.48
2023-12-16T00:03:42.381Z,102011.48
2023-12-16T00:06:16.627Z,102014.55
2023-12-16T00:08:50.866Z,102012.98
2023-12-16T00:11:24.615Z,102003.70
2023-12-16T00:13:58.808Z,102002.42
2023-12-16T00:16:32.469Z,102002.57
2023-12-16T00:19:06.820Z,102007.66
2023-12-16T00:21:41.006Z,102008.38
2023-12-16T00:24:15.016Z,102006.51
2023-12-16T00:26:48.692Z,102004.67
2023-12-16T00:29:22.452Z,102017.28
2023-12-16T00:31:56.277Z,102015.25
2023-12-16T00:34:29.313Z,102018.65
2023-12-16T00:37:07.808Z,102021.21
2023-12-16T00:39:41.543Z,102018.65
2023-12-16T00:42:15.134Z,102024.05
2023-12-16T00:44:48.676Z,102030.98
2023-12-16T00:47:22.026Z,102024.90
2023-12-16T00:49:55.482Z,102030.66
2023-12-16T00:52:28.541Z,102029.27
2023-12-16T00:55:02.049Z,102028.91
2023-12-16T00:57:35.899Z,102019.68
2023-12-16T01:00:13.433Z,102023.15
2023-12-16T01:02:47.102Z,102026.57
2023-12-16T01:05:21.112Z,102022.17
2023-12-16T01:07:54.699Z,102018.59
2023-12-16T01:10:28.465Z,102022.48
2023-12-16T01:13:01.712Z,102023.90
2023-12-16T01:15:35.852Z,102028.52
2023-12-16T01:18:10.264Z,102030.20
2023-12-16T01:20:44.013Z,102032.95
2023-12-16T01:23:17.464Z,102032.33
2023-12-16T01:25:51.307Z,102032.69
2023-12-16T01:28:25.062Z,102034.67
2023-12-16T01:30:59.112Z,102034.02
2023-12-16T01:33:33.164Z,102033.83
2023-12-16T01:36:07.462Z,102026.89
2023-12-16T01:38:41.317Z,102028.81
2023-12-16T01:41:15.326Z,102025.96
2023-12-16T01:43:49.069Z,102024.98
2023-12-16T01:46:24.120Z,102027.26
2023-12-16T01:48:59.135Z,102027.87
2023-12-16T01:51:33.717Z,102022.41
2023-12-16T01:54:09.066Z,102021.00
2023-12-16T01:56:42.411Z,102017.29
2023-12-16T01:59:15.984Z,102021.89
2023-12-16T02:01:49.751Z,102026.46
2023-12-16T02:04:24.246Z,102029.89
2023-12-16T02:06:58.080Z,102033.35
2023-12-16T02:09:31.859Z,102026.00
2023-12-16T02:12:06.198Z,102028.84
2023-12-16T02:14:39.702Z,102047.13
2023-12-16T02:17:14.471Z,102063.32
2023-12-16T02:19:52.681Z,102067.95
2023-12-16T02:22:26.169Z,102064.16
2023-12-16T02:25:00.422Z,102059.19
2023-12-16T02:27:34.140Z,102059.98
2023-12-16T02:30:09.121Z,102055.48
2023-12-16T02:32:44.499Z,102051.24
2023-12-16T02:35:18.291Z,102054.23
2023-12-16T02:37:51.787Z,102054.05
2023-12-16T02:40:25.350Z,102052.95
2023-12-16T02:42:59.120Z,102055.84
2023-12-16T02:45:32.810Z,102058.17
2023-12-16T02:48:07.321Z,102054.92
2023-12-16T02:50:40.473Z,102049.66
2023-12-16T02:53:14.028Z,102048.54
2023-12-16T02:55:47.659Z,102047.33
2023-12-16T02:58:21.481Z,102044.36
2023-12-16T03:00:55.188Z,102040.80
2023-12-16T03:03:29.074Z,102039.96
2023-12-16T03:06:08.842Z,102043.12
2023-12-16T03:08:42.420Z,102046.84
2023-12-16T03:11:15.967Z,102051.62
2023-12-16T03:13:49.622Z,102050.29
2023-12-16T03:16:23.274Z,102045.78
2023-12-16T03:18:57.264Z,102047.91
2023-12-16T03:21:30.925Z,102052.02
2023-12-16T03:24:05.472Z,102052.27
2023-12-16T03:26:38.933Z,102055.71
2023-12-16T03:29:13.183Z,102056.52
2023-12-16T03:31:46.965Z,102058.80
2023-12-16T03:34:20.553Z,102065.61
2023-12-16T03:36:54.167Z,102067.66
2023-12-16T03:39:27.664Z,102067.98
2023-12-16T03:42:01.171Z,102068.92
2023-12-16T03:44:34.551Z,102073.27
2023-12-16T03:47:08.185Z,102071.02
2023-12-16T03:49:42.091Z,102075.75
2023-12-16T03:52:16.105Z,102081.70
2023-12-16T03:54:49.663Z,102086.59
2023-12-16T03:57:23.524Z,102088.34
2023-12-16T03:59:56.492Z,102087.01
2023-12-16T04:02:30.088Z,102085.55
2023-12-16T04:05:03.931Z,102085.67
2023-12-16T04:07:37.846Z,102080.98
2023-12-16T04:10:13.563Z,102080.23
2023-12-16T04:12:47.451Z,102077.67
2023-12-16T04:15:20.664Z,102079.59
2023-12-16T04:17:54.162Z,102082.42
2023-12-16T04:20:30.272Z,102086.55
2023-12-16T04:23:04.185Z,102079.35
2023-12-16T04:25:37.846Z,102079.02
2023-12-16T04:28:10.687Z,102079.39
2023-12-16T04:30:44.502Z,102075.59
2023-12-16T04:33:17.412Z,102078.30
2023-12-16T04:35:53.434Z,102079.06
2023-12-16T04:38:26.844Z,102082.52
2023-12-16T04:40:59.618Z,102093.13
2023-12-16T04:43:33.443Z,102095.98
2023-12-16T04:46:07.358Z,102100.61
2023-12-16T04:48:40.952Z,102109.34
2023-12-16T04:51:14.905Z,102115.91
2023-12-16T04:53:48.336Z,102116.84
2023-12-16T04:56:21.967Z,102116.84
2023-12-16T04:58:55.648Z,102113.84
2023-12-16T05:01:29.364Z,102113.14
2023-12-16T05:04:03.155Z,102108.66
2023-12-16T05:06:36.909Z,102099.07
2023-12-16T05:09:11.790Z,102098.39
2023-12-16T05:11:45.523Z,102104.23
2023-12-16T05:14:19.296Z,102104.77
2023-12-16T05:16:52.905Z,102111.20
2023-12-16T05:19:27.328Z,102115.90
2023-12-16T05:22:01.386Z,102125.17
2023-12-16T05:24:35.242Z,102120.98
2023-12-16T05:27:09.361Z,102116.50
2023-12-16T05:29:43.026Z,102114.48
2023-12-16T05:32:16.841Z,102115.23
2023-12-16T05:34:50.455Z,102112.52
2023-12-16T05:37:24.164Z,102113.14
2023-12-16T05:39:57.498Z,102107.71
2023-12-16T05:42:31.366Z,102103.45
2023-12-16T05:45:05.326Z,102105.19
2023-12-16T05:47:39.162Z,102113.42
2023-12-16T05:50:13.088Z,102117.27
2023-12-16T05:52:46.696Z,102115.34
2023-12-16T05:55:20.299Z,102118.12
2023-12-16T05:57:54.045Z,102117.23
2023-12-16T06:00:28.534Z,102118.41
2023-12-16T06:03:02.738Z,102120.64
2023-12-16T06:05:37.903Z,102125.52
2023-12-16T06:08:11.483Z,102126.09
2023-12-16T06:10:45.200Z,102125.36
2023-12-16T06:13:19.069Z,102129.59
2023-12-16T06:16:03.763Z,102131.06
2023-12-16T06:18:46.550Z,102132.56
2023-12-16T06:21:20.086Z,102136.48
2023-12-16T06:23:53.915Z,102136.77
2023-12-16T06:26:28.980Z,102137.68
2023-12-16T06:29:02.796Z,102143.09
2023-12-16T06:31:36.466Z,102146.77
2023-12-16T06:34:10.533Z,102147.16
2023-12-16T06:36:43.819Z,102143.10
2023-12-16T06:39:17.737Z,102142.75
2023-12-16T06:41:51.695Z,102143.08
2023-12-16T06:44:25.165Z,102146.81
2023-12-16T06:46:58.932Z,102141.07
2023-12-16T06:49:33.283Z,102142.58
2023-12-16T06:52:07.915Z,102149.16
2023-12-16T06:54:41.517Z,102155.68
2023-12-16T06:57:15.295Z,102155.69
2023-12-16T06:59:49.133Z,102158.09
2023-12-16T07:02:22.868Z,102162.55
2023-12-16T07:04:57.412Z,102163.08
2023-12-16T07:07:32.836Z,102165.39
2023-12-16T07:10:08.142Z,102169.98
2023-12-16T07:12:41.927Z,102174.55
2023-12-16T07:15:15.872Z,102175.96
2023-12-16T07:17:50.222Z,102176.31
2023-12-16T07:20:24.118Z,102177.81
2023-12-16T07:22:57.848Z,102172.17
2023-12-16T07:25:31.721Z,102173.75
2023-12-16T07:28:05.072Z,102174.05
2023-12-16T07:30:38.626Z,102174.30
2023-12-16T07:33:11.967Z,102177.70
2023-12-16T07:35:46.031Z,102171.09
2023-12-16T07:38:19.889Z,102165.65
2023-12-16T07:40:53.776Z,102171.46
2023-12-16T07:43:27.944Z,102169.25
2023-12-16T07:46:01.649Z,102174.15
2023-12-16T07:48:34.940Z,102177.20
2023-12-16T07:51:09.362Z,102183.09
2023-12-16T07:53:45.019Z,102186.13
2023-12-16T07:56:23.682Z,102191.42
2023-12-16T07:58:58.915Z,102191.89
2023-12-16T08:01:32.175Z,102191.61
2023-12-16T08:04:05.324Z,102195.19
2023-12-16T08:06:39.606Z,102196.64
2023-12-16T08:09:13.438Z,102198.47
2023-12-16T08:11:47.605Z,102209.04
2023-12-16T08:14:21.313Z,102214.73
2023-12-16T08:16:55.323Z,102226.76
2023-12-16T08:19:29.291Z,102224.95
2023-12-16T08:22:03.324Z,102224.60
2023-12-16T08:24:37.671Z,102216.23
2023-12-16T08:27:11.371Z,102211.46
2023-12-16T08:29:45.110Z,102208.48
2023-12-16T08:32:18.852Z,102208.70
2023-12-16T08:34:52.770Z,102207.60
2023-12-16T08:37:26.475Z,102207.21
2023-12-16T08:39:59.660Z,102203.93
2023-12-16T08:42:33.703Z,102211.45
2023-12-16T08:45:09.031Z,102208.20
2023-12-16T08:47:43.465Z,102215.84
2023-12-16T08:50:17.917Z,102211.24
2023-12-16T08:52:50.934Z,102207.89
2023-12-16T08:55:25.944Z,102207.20
2023-12-16T08:57:59.599Z,102209.48
2023-12-16T09:00:33.533Z,102212.95
2023-12-16T09:03:07.468Z,102222.70
2023-12-16T09:05:41.304Z,102226.10
2023-12-16T09:08:15.145Z,102228.56
2023-12-16T09:10:48.969Z,102230.86
2023-12-16T09:13:22.889Z,102226.48
2023-12-16T09:15:57.278Z,102222.92
2023-12-16T09:18:31.465Z,102223.90
2023-12-16T09:21:05.695Z,102224.60
2023-12-16T09:23:40.257Z,102221.04
2023-12-16T09:26:14.958Z,102222.48
2023-12-16T09:28:48.935Z,102221.04
2023-12-16T09:31:22.723Z,102221.96
2023-12-16T09:33:57.243Z,102218.54
2023-12-16T09:36:31.869Z,102214.54
2023-12-16T09:39:05.774Z,102207.36
2023-12-16T09:41:46.045Z,102204.50
2023-12-16T09:44:20.515Z,102203.13
2023-12-16T09:46:56.406Z,102199.23
2023-12-16T09:49:31.081Z,102195.46
2023-12-16T09:52:05.019Z,102196.05
2023-12-16T09:54:39.927Z,102201.05
2023-12-16T09:57:14.502Z,102200.52
2023-12-16T09:59:49.223Z,102198.92
2023-12-16T10:02:29.287Z,102200.36
2023-12-16T10:05:04.571Z,102197.95
2023-12-16T10:07:38.631Z,102194.45
2023-12-16T10:10:13.586Z,102192.02
2023-12-16T10:12:47.403Z,102194.28
2023-12-16T10:15:33.157Z,102195.84
2023-12-16T10:18:08.008Z,102192.40
2023-12-16T10:20:41.679Z,102185.25
2023-12-16T10:23:16.541Z,102179.27
2023-12-16T10:25:50.048Z,102183.63
2023-12-16T10:28:23.899Z,102175.80
2023-12-16T10:30:57.743Z,102181.31
2023-12-16T10:33:33.176Z,102190.79
2023-12-16T10:36:09.041Z,102185.85
2023-12-16T10:38:42.759Z,102186.63
2023-12-16T10:41:16.626Z,102190.24
2023-12-16T10:43:50.641Z,102182.23
2023-12-16T10:46:25.171Z,102178.88
2023-12-16T10:49:03.711Z,102181.20
2023-12-16T10:51:40.192Z,102179.89
2023-12-16T10:54:16.452Z,102181.38
2023-12-16T10:57:00.122Z,102182.40
2023-12-16T10:59:39.101Z,102186.58
2023-12-16T11:02:28.464Z,102186.71
2023-12-16T11:05:09.696Z,102178.77
2023-12-16T11:07:44.462Z,102188.17
2023-12-16T11:10:19.789Z,102186.33
2023-12-16T11:12:55.047Z,102186.85
2023-12-16T11:15:30.046Z,102188.00
2023-12-16T11:18:06.323Z,102191.94
2023-12-16T11:20:43.891Z,102191.86
2023-12-16T11:23:18.743Z,102190.70
2023-12-16T11:25:53.313Z,102190.34
2023-12-16T11:28:29.144Z,102179.95
2023-12-16T11:31:03.413Z,102172.73
2023-12-16T11:33:48.728Z,102171.58
2023-12-16T11:36:57.023Z,102165.63
2023-12-16T11:39:46.652Z,102164.41
2023-12-16T11:42:56.469Z,102161.66
2023-12-16T11:45:44.405Z,102161.14
2023-12-16T11:48:19.809Z,102157.42
2023-12-16T11:50:54.436Z,102153.10
2023-12-16T11:53:30.683Z,102158.77
2023-12-16T11:56:05.430Z,102156.44
2023-12-16T11:58:39.342Z,102151.92
2023-12-16T12:01:13.629Z,102154.30
2023-12-16T12:03:47.626Z,102150.40
2023-12-16T12:06:21.608Z,102146.51
2023-12-16T12:08:58.630Z,102143.42
2023-12-16T12:11:33.185Z,102144.54
2023-12-16T12:14:08.284Z,102138.96
2023-12-16T12:16:42.484Z,102135.44
2023-12-16T12:19:18.312Z,102133.30
2023-12-16T12:21:52.324Z,102132.08
2023-12-16T12:24:26.242Z,102128.97
2023-12-16T12:27:01.164Z,102124.46
2023-12-16T12:30:02.162Z,102121.10
2023-12-16T12:32:37.524Z,102118.30
2023-12-16T12:35:13.959Z,102119.09
2023-12-16T12:37:49.474Z,102119.13
2023-12-16T12:40:24.584Z,102111.73
2023-12-16T12:43:00.493Z,102106.83
2023-12-16T12:45:37.315Z,102103.67
2023-12-16T12:48:19.618Z,102097.77
2023-12-16T12:51:08.417Z,102094.19
2023-12-16T12:53:43.742Z,102099.44
2023-12-16T12:56:18.309Z,102099.41
2023-12-16T12:58:51.804Z,102096.10
2023-12-16T13:01:26.218Z,102099.01
2023-12-16T13:04:01.019Z,102101.54
2023-12-16T13:06:35.180Z,102101.33
2023-12-16T13:09:10.208Z,102101.85
2023-12-16T13:11:43.604Z,102103.23
2023-12-16T13:14:23.572Z,102096.02
2023-12-16T13:17:01.949Z,102094.04
2023-12-16T13:19:36.919Z,102094.41
2023-12-16T13:22:11.003Z,102091.51
2023-12-16T13:24:44.878Z,102089.63
2023-12-16T13:27:18.619Z,102087.08
2023-12-16T13:29:52.341Z,102081.24
2023-12-16T13:32:26.281Z,102078.32
2023-12-16T13:34:59.805Z,102078.29
2023-12-16T13:37:33.453Z,102079.34
2023-12-16T13:40:10.035Z,102072.64
2023-12-16T13:42:43.993Z,102075.52
2023-12-16T13:45:18.113Z,102078.72
2023-12-16T13:47:51.965Z,102079.09
2023-12-16T13:50:25.935Z,102076.90
2023-12-16T13:53:00.401Z,102078.09
2023-12-16T13:55:34.466Z,102072.95
2023-12-16T13:58:08.459Z,102069.92
2023-12-16T14:00:42.210Z,102068.68
2023-12-16T14:03:15.639Z,102066.17
2023-12-16T14:05:49.676Z,102065.30
2023-12-16T14:08:23.909Z,102066.96
2023-12-16T14:10:57.467Z,102065.00
2023-12-16T14:13:31.805Z,102064.27
2023-12-16T14:16:06.463Z,102063.38
2023-12-16T14:18:40.412Z,102066.42
2023-12-16T14:21:15.465Z,102062.00
2023-12-16T14:23:49.459Z,102064.52
2023-12-16T14:26:23.416Z,102066.20
2023-12-16T14:28:57.549Z,102061.05
2023-12-16T14:31:31.232Z,102058.20
2023-12-16T14:34:05.331Z,102064.03
2023-12-16T14:36:39.903Z,102063.02
2023-12-16T14:39:13.935Z,102062.39
2023-12-16T14:41:49.285Z,102062.80
2023-12-16T14:44:23.681Z,102059.69
2023-12-16T14:46:57.652Z,102061.43
2023-12-16T14:49:31.522Z,102057.77
2023-12-16T14:52:05.849Z,102064.29
2023-12-16T14:54:40.040Z,102064.61
2023-12-16T14:57:13.275Z,102065.02
2023-12-16T14:59:48.246Z,102060.35
2023-12-16T15:02:22.575Z,102062.02
2023-12-16T15:04:56.305Z,102056.38
2023-12-16T15:07:29.975Z,102050.60
2023-12-16T15:10:03.978Z,102045.73
2023-12-16T15:12:38.288Z,102040.04
2023-12-16T15:15:13.589Z,102039.46
2023-12-16T15:17:56.250Z,102036.88
2023-12-16T15:20:33.579Z,102031.60
2023-12-16T15:23:08.336Z,102031.84
2023-12-16T15:25:43.592Z,102026.60
2023-12-16T15:28:18.619Z,102023.33
2023-12-16T15:30:52.372Z,102019.84
2023-12-16T15:33:26.400Z,102023.15
2023-12-16T15:35:59.379Z,102027.02
2023-12-16T15:38:33.413Z,102025.88
2023-12-16T15:41:06.862Z,102030.13
2023-12-16T15:43:40.643Z,102026.42
2023-12-16T15:46:14.367Z,102024.54
2023-12-16T15:48:48.260Z,102023.02
2023-12-16T15:51:29.423Z,102027.38
2023-12-16T15:54:05.629Z,102032.16
2023-12-16T15:56:44.523Z,102039.25
2023-12-16T15:59:18.573Z,102044.48
2023-12-16T16:01:52.807Z,102052.13
2023-12-16T16:04:26.239Z,102054.48
2023-12-16T16:07:00.121Z,102059.85
2023-12-16T16:09:34.519Z,102054.28
2023-12-16T16:12:09.845Z,102044.94
2023-12-16T16:14:44.468Z,102042.73
2023-12-16T16:17:18.211Z,102032.22
2023-12-16T16:19:52.320Z,102025.11
2023-12-16T16:22:25.531Z,102024.03
2023-12-16T16:25:11.401Z,102022.36
2023-12-16T16:27:45.232Z,102025.88
2023-12-16T16:30:19.931Z,102023.25
2023-12-16T16:32:54.213Z,102022.06
2023-12-16T16:35:28.138Z,102022.48
2023-12-16T16:38:01.993Z,102021.27
2023-12-16T16:40:36.282Z,102018.02
2023-12-16T16:43:10.005Z,102020.91
2023-12-16T16:45:44.525Z,102019.28
2023-12-16T16:48:17.981Z,102015.35
2023-12-16T16:50:52.089Z,102016.46
2023-12-16T16:53:26.230Z,102016.14
2023-12-16T16:56:00.041Z,102013.10
2023-12-16T16:58:33.995Z,102013.84
2023-12-16T17:01:08.455Z,102011.50
2023-12-16T17:03:42.963Z,102008.02
2023-12-16T17:06:17.850Z,102004.95
2023-12-16T17:08:52.117Z,102008.69
2023-12-16T17:11:26.973Z,102008.30
2023-12-16T17:14:01.079Z,102007.54
2023-12-16T17:16:35.440Z,102009.25
2023-12-16T17:19:10.556Z,102004.14
2023-12-16T17:21:44.461Z,102000.25
2023-12-16T17:24:19.137Z,102001.55
2023-12-16T17:26:53.298Z,102000.09
2023-12-16T17:29:27.485Z,102003.96
2023-12-16T17:32:01.718Z,102003.33
2023-12-16T17:34:35.609Z,101998.66
2023-12-16T17:37:10.982Z,101997.19
2023-12-16T17:39:44.926Z,101997.72
2023-12-16T17:42:18.241Z,101996.48
2023-12-16T17:44:52.437Z,101994.77
2023-12-16T17:47:26.654Z,101990.88
2023-12-16T17:50:02.515Z,101988.09
2023-12-16T17:52:37.345Z,101991.20
2023-12-16T17:55:13.093Z,101983.76
2023-12-16T17:57:49.101Z,101981.55
2023-12-16T18:00:23.369Z,101985.42
2023-12-16T18:02:57.479Z,101988.05
2023-12-16T18:05:30.933Z,101981.05
2023-12-16T18:08:07.159Z,101976.59
2023-12-16T18:10:41.521Z,101978.98
2023-12-16T18:13:15.762Z,101973.52
2023-12-16T18:15:50.044Z,101969.16
2023-12-16T18:18:24.933Z,101968.48
2023-12-16T18:21:01.830Z,101970.73
2023-12-16T18:23:36.414Z,101971.88
2023-12-16T18:26:12.285Z,101981.13
2023-12-16T18:28:47.547Z,101989.78
2023-12-16T18:31:20.995Z,102004.13
2023-12-16T18:33:55.058Z,102008.30
2023-12-16T18:36:30.530Z,102005.94
2023-12-16T18:39:05.480Z,101999.34
2023-12-16T18:41:39.591Z,101996.77
2023-12-16T18:44:14.635Z,101999.73
2023-12-16T18:46:48.569Z,102001.80
2023-12-16T18:49:22.669Z,102005.11
2023-12-16T18:51:57.169Z,102003.38
2023-12-16T18:54:30.962Z,102001.02
2023-12-16T18:57:05.767Z,101999.14
2023-12-16T18:59:39.896Z,102000.44
2023-12-16T19:02:14.371Z,102001.72
2023-12-16T19:04:48.149Z,101999.06
2023-12-16T19:07:24.933Z,101988.48
2023-12-16T19:09:58.907Z,101984.67
2023-12-16T19:12:33.007Z,101986.20
2023-12-16T19:15:07.625Z,101988.36
2023-12-16T19:17:42.167Z,101984.05
2023-12-16T19:20:18.019Z,101984.63
2023-12-16T19:22:54.594Z,101982.97
2023-12-16T19:25:28.836Z,101973.80
2023-12-16T19:28:03.905Z,101974.46
2023-12-16T19:30:38.076Z,101972.81
2023-12-16T19:33:12.862Z,101969.25
2023-12-16T19:35:46.182Z,101968.69
2023-12-16T19:38:19.436Z,101965.98
2023-12-16T19:40:53.460Z,101965.75
2023-12-16T19:43:29.459Z,101969.86
2023-12-16T19:46:04.853Z,101972.55
2023-12-16T19:49:02.014Z,101985.60
2023-12-16T19:51:37.560Z,101990.63
2023-12-16T19:54:12.997Z,101989.65
2023-12-16T19:56:46.527Z,101986.98
2023-12-16T19:59:21.641Z,101987.65
2023-12-16T20:01:55.816Z,101988.66
2023-12-16T20:04:30.211Z,101994.49
2023-12-16T20:07:04.496Z,101995.55
2023-12-16T20:09:38.675Z,101994.76
2023-12-16T20:12:13.004Z,101989.73
2023-12-16T20:14:47.176Z,101988.34
2023-12-16T20:17:22.488Z,101986.09
2023-12-16T20:19:57.852Z,101986.46
2023-12-16T20:22:32.127Z,101985.27
2023-12-16T20:25:06.595Z,101982.21
2023-12-16T20:27:42.284Z,101979.79
2023-12-16T20:30:17.778Z,101977.51
2023-12-16T20:32:52.081Z,101973.84
2023-12-16T20:35:26.020Z,101966.23
2023-12-16T20:38:02.642Z,101957.30
2023-12-16T20:40:37.195Z,101947.47
2023-12-16T20:43:11.220Z,101938.84
2023-12-16T20:45:45.045Z,101938.67
2023-12-16T20:48:18.552Z,101937.71
2023-12-16T20:50:54.082Z,101944.48
2023-12-16T20:53:28.749Z,101949.23
2023-12-16T20:56:03.444Z,101963.85
2023-12-16T20:58:38.116Z,101966.38
2023-12-16T21:01:12.765Z,101971.29
2023-12-16T21:03:46.662Z,101972.23
2023-12-16T21:06:21.455Z,101975.84
2023-12-16T21:08:55.560Z,101976.31
2023-12-16T21:11:29.572Z,101962.58
2023-12-16T21:14:10.502Z,101954.25
2023-12-16T21:16:47.437Z,101948.38
2023-12-16T21:19:21.955Z,101935.23
2023-12-16T21:22:07.064Z,101938.23
2023-12-16T21:24:43.745Z,101940.84
2023-12-16T21:27:16.982Z,101950.76
2023-12-16T21:29:50.956Z,101947.69
2023-12-16T21:32:24.845Z,101949.85
2023-12-16T21:34:59.180Z,101955.30
2023-12-16T21:37:40.873Z,101961.82
2023-12-16T21:40:19.402Z,101969.55
2023-12-16T21:42:54.854Z,101968.80
2023-12-16T21:45:29.258Z,101960.08
2023-12-16T21:48:07.473Z,101963.85
2023-12-16T21:50:42.081Z,101967.67
2023-12-16T21:53:18.148Z,101972.95
2023-12-16T21:55:52.940Z,101962.81
2023-12-16T21:58:28.485Z,101947.30
2023-12-16T22:01:02.315Z,101950.20
2023-12-16T22:03:37.237Z,101947.77
2023-12-16T22:06:12.284Z,101947.05
2023-12-16T22:08:55.196Z,101942.66
2023-12-16T22:11:29.555Z,101941.76
2023-12-16T22:14:05.221Z,101945.55
2023-12-16T22:16:39.901Z,101943.92
2023-12-16T22:19:13.957Z,101944.99
2023-12-16T22:21:48.211Z,101938.95
2023-12-16T22:24:22.113Z,101941.69
2023-12-16T22:26:56.255Z,101942.92
2023-12-16T22:29:30.412Z,101947.40
2023-12-16T22:32:04.237Z,101955.91
2023-12-16T22:34:38.282Z,101958.45
2023-12-16T22:37:12.021Z,101960.49
2023-12-16T22:39:45.792Z,101962.52
2023-12-16T22:42:20.841Z,101962.64
2023-12-16T22:44:54.521Z,101958.50
2023-12-16T22:47:28.998Z,101963.40
2023-12-16T22:50:03.060Z,101958.41
2023-12-16T22:52:37.777Z,101951.21
2023-12-16T22:55:12.653Z,101952.92
2023-12-16T22:57:46.406Z,101954.07
2023-12-16T23:00:27.350Z,101948.20
2023-12-16T23:03:01.363Z,101936.17
2023-12-16T23:05:35.072Z,101929.28
2023-12-16T23:08:08.881Z,101925.77
2023-12-16T23:10:42.343Z,101923.75
2023-12-16T23:13:16.065Z,101919.56
2023-12-16T23:15:50.010Z,101918.64
2023-12-16T23:18:23.779Z,101925.39
2023-12-16T23:20:57.510Z,101930.39
2023-12-16T23:23:34.225Z,101924.48
2023-12-16T23:26:09.335Z,101914.38
2023-12-16T23:28:43.132Z,101920.02
2023-12-16T23:31:16.563Z,101914.50
2023-12-16T23:33:50.659Z,101905.30
2023-12-16T23:36:24.506Z,101896.77
2023-12-16T23:38:58.048Z,101890.14
2023-12-16T23:41:31.649Z,101890.77
2023-12-16T23:44:05.220Z,101887.34
2023-12-16T23:46:38.860Z,101886.52
2023-12-16T23:49:12.586Z,101885.29
2023-12-16T23:51:46.512Z,101889.42
2023-12-16T23:54:20.346Z,101887.83
2023-12-16T23:56:54.156Z,101884.88
2023-12-16T23:59:27.855Z,101884.30
